Roland, Arkansas
Current Conditions -  °F | °C
As of 12:53 PM on Friday 31 Oct 2014 (Local Time) from KLIT Reporting Station
Scattered Clouds Scattered Clouds  
Wind Chill: 63°   Ceiling: Unl
Heat Index: 63°   Visibility: 10mi
Dew Point: 39°   Wind: 15mph
Humidity: 41%   Direction: 330°NNW
Pressure: 30.21"   Gusts: 21mph
Location:  34.9°N, 92.5°W
Report Text: KLIT 311753Z 33013G18KT 10SM SCT047 17/04 A3021 RMK AO2 SLP233 T01720039 10178 20117 50005
Loading
Personal Weather Stations






























Interactive Weather Map
Tropical Storm Tracking
New forecast layout! Learn more

10-Day Weather Forecast

Advertisements
Track Severe Weather on mobile